Time;durP1;ratioP1;P1;durP2;ratioP2;P2;SDS_P1;SDS_P2;PMS_P1;PMS_P2;Temp;Humidity;BMP_temperature;BMP_pressure;BME280_temperature;BME280_humidity;BME280_pressure;Samples;Min_cycle;Max_cycle;Signal;HPM_P1;HPM_P2
2023/09/15 00:02:10;;;;;;;10.07;7.28;;;16.80;98.60;;;;;;6215655;23;20189;-87
2023/09/15 00:04:37;;;;;;;8.70;7.47;;;16.70;98.70;;;;;;6188480;23;20177;-86
2023/09/15 00:07:04;;;;;;;8.18;7.32;;;16.70;98.40;;;;;;6213937;23;20181;-87
2023/09/15 00:09:31;;;;;;;8.40;7.57;;;16.70;98.50;;;;;;6213908;23;20189;-87
2023/09/15 00:11:58;;;;;;;9.07;6.88;;;16.70;98.90;;;;;;6214535;23;20176;-87
2023/09/15 00:14:25;;;;;;;7.90;7.15;;;16.70;98.80;;;;;;6213684;23;20170;-87
2023/09/15 00:16:52;;;;;;;8.10;7.25;;;16.60;98.90;;;;;;6214702;23;20190;-87
2023/09/15 00:19:22;;;;;;;10.13;7.93;;;16.50;99.20;;;;;;6214234;23;20196;-87
2023/09/15 00:21:48;;;;;;;9.48;7.85;;;16.40;99.30;;;;;;6214709;23;20781;-87
2023/09/15 00:24:16;;;;;;;9.73;8.50;;;16.40;99.70;;;;;;6214990;23;20181;-87
2023/09/15 00:26:43;;;;;;;10.60;8.40;;;16.30;99.90;;;;;;6214475;23;20228;-87
2023/09/15 00:29:11;;;;;;;12.55;10.60;;;16.20;99.90;;;;;;6215320;23;20232;-86
2023/09/15 00:31:38;;;;;;;9.30;8.40;;;16.30;99.90;;;;;;6214301;23;20178;-86
2023/09/15 00:34:05;;;;;;;8.30;7.50;;;16.40;99.90;;;;;;6212893;23;20181;-86
2023/09/15 00:36:34;;;;;;;9.52;8.63;;;16.30;99.90;;;;;;6214718;23;20228;-87
2023/09/15 00:39:01;;;;;;;12.65;8.90;;;16.30;99.90;;;;;;6214699;23;20213;-86
2023/09/15 00:41:28;;;;;;;9.43;7.70;;;16.30;99.90;;;;;;6213325;23;20174;-87
2023/09/15 00:43:55;;;;;;;9.95;7.30;;;16.20;99.90;;;;;;6213721;23;20180;-87
2023/09/15 00:46:22;;;;;;;10.73;9.00;;;16.20;99.90;;;;;;6215255;23;20181;-86
2023/09/15 00:48:51;;;;;;;8.20;7.30;;;16.10;99.90;;;;;;6186823;23;20178;-86
2023/09/15 00:51:21;;;;;;;9.15;7.20;;;16.00;99.90;;;;;;6214454;23;20229;-87
2023/09/15 00:53:49;;;;;;;9.40;7.97;;;15.90;99.90;;;;;;6212753;23;20181;-87
2023/09/15 00:56:16;;;;;;;8.02;7.18;;;15.90;99.90;;;;;;6214178;23;20280;-87
2023/09/15 00:58:44;;;;;;;8.27;7.40;;;15.70;99.90;;;;;;6214546;23;20170;-87
2023/09/15 01:01:11;;;;;;;8.95;8.02;;;15.60;99.90;;;;;;6188184;23;20178;-87
2023/09/15 01:03:42;;;;;;;11.70;8.50;;;15.50;99.90;;;;;;6214046;23;20181;-87
2023/09/15 01:06:11;;;;;;;8.57;7.70;;;15.50;99.90;;;;;;6214274;23;20174;-86
2023/09/15 01:08:38;;;;;;;8.75;7.85;;;15.40;99.90;;;;;;6214836;23;20255;-87
2023/09/15 01:11:06;;;;;;;9.15;8.25;;;15.30;99.90;;;;;;6188339;23;20177;-86
2023/09/15 01:13:34;;;;;;;8.70;7.80;;;15.40;99.90;;;;;;6213838;23;20173;-86
2023/09/15 01:16:08;;;;;;;7.75;7.05;;;15.50;99.90;;;;;;6214715;23;20184;-86
2023/09/15 01:18:44;;;;;;;7.72;6.93;;;15.50;99.90;;;;;;6187898;23;20174;-87
2023/09/15 01:21:44;;;;;;;10.30;7.57;;;15.40;99.90;;;;;;6213851;23;20170;-86
2023/09/15 01:24:30;;;;;;;7.30;6.57;;;15.50;99.90;;;;;;6213763;23;20158;-86
2023/09/15 01:27:13;;;;;;;8.38;7.57;;;15.50;99.90;;;;;;6187700;23;20216;-87
2023/09/15 01:29:46;;;;;;;9.45;7.88;;;15.60;99.90;;;;;;6187744;23;20472;-86
2023/09/15 01:32:15;;;;;;;8.20;7.40;;;15.60;99.90;;;;;;6213874;23;20168;-87
2023/09/15 01:34:47;;;;;;;8.65;7.72;;;15.50;99.90;;;;;;6186261;23;20188;-87
2023/09/15 01:37:14;;;;;;;8.18;7.35;;;15.40;99.90;;;;;;6213793;23;20508;-86
2023/09/15 01:39:41;;;;;;;9.00;8.10;;;15.30;99.90;;;;;;6213797;23;20180;-87
2023/09/15 01:42:08;;;;;;;9.85;7.50;;;15.30;99.90;;;;;;6187493;23;20174;-87
2023/09/15 01:44:35;;;;;;;10.00;8.02;;;15.20;99.90;;;;;;6213132;23;20253;-86
2023/09/15 01:47:06;;;;;;;9.05;8.20;;;15.10;99.90;;;;;;6214060;23;20180;-87
2023/09/15 01:49:33;;;;;;;8.55;7.70;;;15.10;99.90;;;;;;6212919;23;20173;-87
2023/09/15 01:52:01;;;;;;;10.45;8.38;;;15.00;99.90;;;;;;6212919;23;20189;-86
2023/09/15 01:54:28;;;;;;;9.65;8.40;;;15.00;99.90;;;;;;6212565;23;20728;-87
2023/09/15 01:56:55;;;;;;;8.88;7.97;;;14.90;99.90;;;;;;6211889;23;20204;-86
2023/09/15 01:59:21;;;;;;;10.23;8.50;;;14.90;99.90;;;;;;6211700;23;20171;-87
2023/09/15 02:01:48;;;;;;;9.10;8.20;;;14.80;99.90;;;;;;6187479;23;20189;-86
2023/09/15 02:04:16;;;;;;;9.70;8.65;;;14.80;99.90;;;;;;6213465;23;20162;-87
2023/09/15 02:06:43;;;;;;;10.27;8.50;;;14.70;99.90;;;;;;6187467;23;20240;-86
2023/09/15 02:09:11;;;;;;;9.75;8.77;;;14.70;99.90;;;;;;6214078;23;20170;-86
2023/09/15 02:11:37;;;;;;;12.95;9.23;;;14.70;99.90;;;;;;6213518;23;20178;-87
2023/09/15 02:14:04;;;;;;;9.57;8.55;;;14.70;99.90;;;;;;6185544;23;20177;-86
2023/09/15 02:16:31;;;;;;;10.52;9.43;;;14.70;99.90;;;;;;6213821;23;20503;-87
2023/09/15 02:18:58;;;;;;;10.30;9.23;;;14.70;99.90;;;;;;6187809;23;20180;-86
2023/09/15 02:21:27;;;;;;;10.20;8.38;;;14.80;99.90;;;;;;6210813;23;20180;-87
2023/09/15 02:23:54;;;;;;;11.00;8.95;;;14.90;99.90;;;;;;6211685;23;20830;-87
2023/09/15 02:26:22;;;;;;;10.40;9.18;;;14.90;99.90;;;;;;6213577;23;20174;-87
2023/09/15 02:28:50;;;;;;;12.43;9.95;;;15.00;99.90;;;;;;6187316;23;20260;-86
2023/09/15 02:31:17;;;;;;;10.27;9.27;;;14.90;99.90;;;;;;6216104;23;20503;-87
2023/09/15 02:33:45;;;;;;;12.18;10.23;;;14.80;99.90;;;;;;6212885;23;20555;-87
2023/09/15 02:36:12;;;;;;;12.43;9.70;;;14.80;99.90;;;;;;6187171;23;20181;-85
2023/09/15 02:38:40;;;;;;;10.73;9.18;;;14.80;99.90;;;;;;6213960;23;20198;-87
2023/09/15 02:41:07;;;;;;;10.85;9.80;;;14.90;99.90;;;;;;6212842;23;20181;-87
2023/09/15 02:43:34;;;;;;;11.07;9.98;;;14.90;99.90;;;;;;6211558;23;20180;-87
2023/09/15 02:46:04;;;;;;;10.63;9.52;;;14.90;99.90;;;;;;6213401;23;20220;-86
2023/09/15 02:48:31;;;;;;;11.57;9.60;;;14.90;99.90;;;;;;6213107;23;20178;-86
2023/09/15 02:50:58;;;;;;;11.88;9.70;;;14.80;99.90;;;;;;6212998;23;20512;-86
2023/09/15 02:53:25;;;;;;;10.75;9.55;;;14.80;99.90;;;;;;6212034;23;20165;-86
2023/09/15 02:55:58;;;;;;;11.43;10.23;;;14.70;99.90;;;;;;6186700;23;20233;-86
2023/09/15 02:58:25;;;;;;;12.32;10.75;;;14.60;99.90;;;;;;6213076;23;20652;-86
2023/09/15 03:00:52;;;;;;;12.93;11.50;;;14.50;99.90;;;;;;6213033;23;20184;-87
2023/09/15 03:03:19;;;;;;;12.45;10.98;;;14.50;99.90;;;;;;6212722;23;20192;-87
2023/09/15 03:05:47;;;;;;;14.43;12.57;;;14.50;99.90;;;;;;6186038;23;20536;-87
2023/09/15 03:08:14;;;;;;;13.02;11.63;;;14.40;99.90;;;;;;6213115;23;20184;-87
2023/09/15 03:10:41;;;;;;;14.02;11.68;;;14.40;99.90;;;;;;6212056;23;20184;-87
2023/09/15 03:13:11;;;;;;;14.35;11.55;;;14.30;99.90;;;;;;6186511;23;20173;-87
2023/09/15 03:15:39;;;;;;;21.35;18.17;;;14.30;99.90;;;;;;6212924;23;20178;-87
2023/09/15 03:18:06;;;;;;;13.68;11.52;;;14.30;99.90;;;;;;6214390;23;20552;-87
2023/09/15 03:20:35;;;;;;;13.77;12.30;;;14.40;99.90;;;;;;6213295;23;20176;-86
2023/09/15 03:23:02;;;;;;;14.68;12.15;;;14.50;99.90;;;;;;6213094;23;20170;-87
2023/09/15 03:25:29;;;;;;;17.35;15.43;;;14.70;99.90;;;;;;6212855;23;20651;-86
2023/09/15 03:27:56;;;;;;;18.30;14.15;;;14.80;99.90;;;;;;6214166;23;20166;-87
2023/09/15 03:30:24;;;;;;;19.20;14.48;;;14.80;99.90;;;;;;6215678;23;20236;-87
2023/09/15 03:32:51;;;;;;;22.10;18.10;;;15.00;99.90;;;;;;6214714;23;20170;-87
2023/09/15 03:35:18;;;;;;;18.48;14.90;;;15.00;99.90;;;;;;6214132;23;20264;-87
2023/09/15 03:37:45;;;;;;;19.23;15.00;;;15.10;99.90;;;;;;6215081;23;20221;-87
2023/09/15 03:40:12;;;;;;;18.67;15.85;;;15.10;99.90;;;;;;6215247;23;20192;-85
2023/09/15 03:42:39;;;;;;;20.60;16.88;;;15.10;99.90;;;;;;6214160;23;20176;-87
2023/09/15 03:45:07;;;;;;;20.85;17.50;;;15.20;99.90;;;;;;6188088;23;20170;-87
2023/09/15 03:47:36;;;;;;;22.30;17.85;;;15.30;99.90;;;;;;6213924;23;20189;-87
2023/09/15 03:50:03;;;;;;;22.05;17.85;;;15.30;99.90;;;;;;6189193;23;20852;-87
2023/09/15 03:52:30;;;;;;;22.10;17.42;;;15.30;99.90;;;;;;6214722;23;20267;-87
2023/09/15 03:55:00;;;;;;;26.33;17.90;;;15.30;99.90;;;;;;6188221;23;20252;-87
2023/09/15 03:57:28;;;;;;;21.10;17.75;;;15.20;99.90;;;;;;6214829;23;20225;-86
2023/09/15 03:59:56;;;;;;;24.02;18.13;;;15.20;99.90;;;;;;6214478;23;20174;-87
2023/09/15 04:02:23;;;;;;;20.60;17.63;;;15.20;99.90;;;;;;6213264;23;20212;-87
2023/09/15 04:04:51;;;;;;;21.10;18.10;;;15.30;99.90;;;;;;6214168;23;20632;-87
2023/09/15 04:07:19;;;;;;;20.88;17.48;;;15.50;99.90;;;;;;6214059;23;20493;-87
2023/09/15 04:09:46;;;;;;;22.10;18.42;;;15.50;99.90;;;;;;6215443;23;20204;-87
2023/09/15 04:12:13;;;;;;;23.08;18.40;;;15.30;99.90;;;;;;6187907;23;20170;-87
2023/09/15 04:14:40;;;;;;;21.55;18.48;;;15.30;99.90;;;;;;6213998;23;20178;-87
2023/09/15 04:17:07;;;;;;;19.95;17.67;;;15.30;99.90;;;;;;6214085;23;20170;-86
2023/09/15 04:19:34;;;;;;;24.40;18.13;;;15.20;99.90;;;;;;6215273;23;20256;-87
2023/09/15 04:22:02;;;;;;;19.80;17.23;;;15.30;99.90;;;;;;6214289;23;20895;-87
2023/09/15 04:24:30;;;;;;;26.67;19.13;;;15.30;99.90;;;;;;6186628;23;20224;-87
2023/09/15 04:26:57;;;;;;;18.83;16.83;;;15.40;99.90;;;;;;6214411;23;20170;-86
2023/09/15 04:29:24;;;;;;;19.35;16.75;;;15.30;99.90;;;;;;6213754;23;20174;-86
2023/09/15 04:31:51;;;;;;;20.23;17.15;;;15.30;99.90;;;;;;6214423;23;20174;-86
2023/09/15 04:34:18;;;;;;;23.10;18.75;;;15.30;99.90;;;;;;6213812;23;20700;-86
2023/09/15 04:36:45;;;;;;;21.45;18.38;;;15.30;99.90;;;;;;6213112;23;20170;-87
2023/09/15 04:41:54;;;;;;;23.33;18.77;;;15.30;99.90;;;;;;6190711;23;20170;-86
2023/09/15 04:44:21;;;;;;;24.63;19.40;;;15.30;99.90;;;;;;6187027;23;20170;-88
2023/09/15 04:46:51;;;;;;;23.75;19.10;;;15.30;99.90;;;;;;6164044;23;20212;-88
2023/09/15 04:49:18;;;;;;;23.65;19.30;;;15.40;99.90;;;;;;6189002;23;20181;-87
2023/09/15 04:51:45;;;;;;;23.85;19.23;;;15.40;99.90;;;;;;6186395;23;20664;-87
2023/09/15 04:54:14;;;;;;;24.55;18.92;;;15.30;99.90;;;;;;6187427;23;20181;-86
2023/09/15 04:56:40;;;;;;;20.05;17.85;;;15.30;99.90;;;;;;6188560;23;20171;-94
2023/09/15 04:59:15;;;;;;;20.73;17.27;;;15.40;99.90;;;;;;6187224;23;20197;-88
2023/09/15 05:01:42;;;;;;;19.13;17.10;;;15.50;99.90;;;;;;6166628;23;20208;-90
2023/09/15 05:04:09;;;;;;;20.77;17.67;;;15.50;99.90;;;;;;6214119;23;20164;-90
2023/09/15 05:06:36;;;;;;;21.05;17.75;;;15.50;99.90;;;;;;6214472;23;20173;-90
2023/09/15 05:09:04;;;;;;;20.15;17.55;;;15.40;99.90;;;;;;6213618;23;20173;-89
2023/09/15 05:11:33;;;;;;;21.05;17.55;;;15.40;99.90;;;;;;6213481;23;20178;-88
2023/09/15 05:14:00;;;;;;;23.35;18.35;;;15.30;99.90;;;;;;6214620;23;20170;-90
2023/09/15 05:16:27;;;;;;;24.17;18.42;;;15.30;99.90;;;;;;6213132;23;20170;-91
2023/09/15 05:18:54;;;;;;;22.83;18.05;;;15.20;99.90;;;;;;6214376;23;20262;-88
2023/09/15 05:21:21;;;;;;;20.70;17.23;;;15.20;99.90;;;;;;6187826;23;20181;-88
2023/09/15 05:23:48;;;;;;;22.23;18.20;;;15.20;99.90;;;;;;6213154;23;20180;-88
2023/09/15 05:26:17;;;;;;;23.73;17.63;;;15.10;99.90;;;;;;6187972;23;20221;-88
2023/09/15 05:28:45;;;;;;;21.45;18.00;;;15.10;99.90;;;;;;6186969;23;20178;-90
2023/09/15 05:31:12;;;;;;;20.80;17.17;;;15.40;99.90;;;;;;6213345;23;20540;-87
2023/09/15 05:33:39;;;;;;;21.17;17.58;;;15.30;99.90;;;;;;6212241;23;20178;-87
2023/09/15 05:36:07;;;;;;;20.08;17.38;;;15.30;99.90;;;;;;6212179;23;20169;-86
2023/09/15 05:38:34;;;;;;;20.40;18.08;;;15.30;99.90;;;;;;6208861;23;20198;-87
2023/09/15 05:41:00;;;;;;;20.27;16.75;;;15.40;99.90;;;;;;6186845;23;20609;-87
2023/09/15 05:43:27;;;;;;;20.30;17.20;;;15.50;99.90;;;;;;6185334;23;20174;-87
2023/09/15 05:45:56;;;;;;;20.80;17.20;;;15.50;99.90;;;;;;6213844;23;20170;-87
2023/09/15 05:48:23;;;;;;;20.70;16.88;;;15.30;99.90;;;;;;6213345;23;20573;-87
2023/09/15 05:50:51;;;;;;;19.70;15.93;;;15.40;99.90;;;;;;6211715;23;20194;-89
2023/09/15 05:53:18;;;;;;;21.20;17.13;;;15.40;99.90;;;;;;6185374;23;20181;-88
2023/09/15 05:55:45;;;;;;;21.48;16.63;;;15.50;99.90;;;;;;6183485;23;20170;-89
2023/09/15 05:58:12;;;;;;;21.15;17.42;;;15.50;99.90;;;;;;6182740;23;20198;-88
2023/09/15 06:00:38;;;;;;;21.67;18.08;;;15.40;99.90;;;;;;6209828;23;20174;-89
2023/09/15 06:03:07;;;;;;;20.58;16.85;;;15.40;99.90;;;;;;6209155;23;20180;-88
2023/09/15 06:05:35;;;;;;;20.35;16.33;;;15.50;99.90;;;;;;6212257;23;20178;-89
2023/09/15 06:08:03;;;;;;;19.98;16.70;;;15.60;99.90;;;;;;6212824;23;20174;-89
2023/09/15 06:10:30;;;;;;;22.05;17.58;;;15.80;99.90;;;;;;6212738;23;20499;-88
2023/09/15 06:12:56;;;;;;;21.10;17.33;;;15.80;99.90;;;;;;6186129;23;20770;-89
2023/09/15 06:15:26;;;;;;;20.40;17.00;;;15.70;99.90;;;;;;6187136;23;20174;-88
2023/09/15 06:17:53;;;;;;;23.00;18.90;;;15.80;99.90;;;;;;6186204;23;20178;-88
2023/09/15 06:20:26;;;;;;;20.00;17.73;;;15.80;99.90;;;;;;6210312;23;20277;-89
2023/09/15 06:22:54;;;;;;;24.15;18.13;;;15.80;99.90;;;;;;6213214;23;20166;-89
2023/09/15 06:25:20;;;;;;;21.65;17.40;;;15.80;99.90;;;;;;6213079;23;20180;-86
2023/09/15 06:27:48;;;;;;;20.73;18.02;;;15.80;99.90;;;;;;6212736;23;20256;-87
2023/09/15 06:30:14;;;;;;;21.85;18.85;;;15.90;99.90;;;;;;6213677;23;20185;-88
2023/09/15 06:32:41;;;;;;;21.08;18.13;;;15.90;99.90;;;;;;6213037;23;20170;-87
2023/09/15 06:35:12;;;;;;;21.55;18.08;;;15.80;99.90;;;;;;6209182;23;20192;-88
2023/09/15 06:37:41;;;;;;;25.90;18.98;;;15.90;99.90;;;;;;6183090;23;20216;-88
2023/09/15 06:40:10;;;;;;;24.63;18.98;;;15.90;99.90;;;;;;6210035;23;20746;-88
2023/09/15 06:42:37;;;;;;;21.80;18.20;;;15.90;99.90;;;;;;6207050;23;20181;-87
2023/09/15 06:45:04;;;;;;;23.92;18.88;;;15.90;99.90;;;;;;6184402;23;20173;-87
2023/09/15 06:47:31;;;;;;;21.63;18.05;;;16.10;99.90;;;;;;6211870;23;20184;-87
2023/09/15 06:49:58;;;;;;;20.80;17.63;;;16.30;99.90;;;;;;6185764;23;20174;-87
2023/09/15 06:52:25;;;;;;;22.90;17.88;;;16.20;99.90;;;;;;6209457;23;20200;-87
2023/09/15 06:54:53;;;;;;;21.33;17.42;;;16.20;99.90;;;;;;6211438;23;20170;-88
2023/09/15 06:57:20;;;;;;;21.42;16.92;;;16.20;99.90;;;;;;6185935;23;20256;-86
2023/09/15 06:59:47;;;;;;;19.25;16.15;;;16.20;99.90;;;;;;6211678;23;20686;-85
2023/09/15 07:02:14;;;;;;;20.35;16.63;;;16.30;99.90;;;;;;6210527;23;20173;-86
2023/09/15 07:04:43;;;;;;;18.95;16.20;;;16.30;99.90;;;;;;6185047;23;20541;-86
2023/09/15 07:07:10;;;;;;;19.38;15.25;;;16.40;99.90;;;;;;6163659;23;20181;-86
2023/09/15 07:09:37;;;;;;;19.70;15.80;;;16.40;99.90;;;;;;6188373;23;20637;-86
2023/09/15 07:12:08;;;;;;;19.35;15.43;;;16.40;99.90;;;;;;6187974;23;20687;-86
2023/09/15 07:14:35;;;;;;;19.38;16.00;;;16.40;99.90;;;;;;6215063;23;20224;-86
2023/09/15 07:17:02;;;;;;;19.95;15.88;;;16.50;99.90;;;;;;6214723;23;20170;-86
2023/09/15 07:19:30;;;;;;;17.20;14.80;;;16.50;99.90;;;;;;6188694;23;20198;-86
2023/09/15 07:21:57;;;;;;;17.83;14.23;;;16.60;99.90;;;;;;6214399;23;20174;-87
2023/09/15 07:24:24;;;;;;;17.55;14.63;;;16.70;99.90;;;;;;6214439;23;20472;-86
2023/09/15 07:26:51;;;;;;;16.58;14.77;;;16.70;99.90;;;;;;6214969;23;20180;-87
2023/09/15 07:29:19;;;;;;;20.60;14.20;;;16.80;99.90;;;;;;6213876;23;20181;-86
2023/09/15 07:31:46;;;;;;;15.07;13.48;;;16.90;99.90;;;;;;6215651;23;20170;-85
2023/09/15 07:34:13;;;;;;;14.88;12.93;;;16.90;99.90;;;;;;6213788;23;20234;-86
2023/09/15 07:36:40;;;;;;;14.13;12.63;;;16.90;99.90;;;;;;6213963;23;20178;-85
2023/09/15 07:39:07;;;;;;;16.65;13.48;;;16.90;99.90;;;;;;6214474;23;20194;-84
2023/09/15 07:41:36;;;;;;;16.40;13.30;;;17.10;99.90;;;;;;6213557;23;20170;-86
2023/09/15 07:44:03;;;;;;;17.95;13.40;;;17.10;99.90;;;;;;6213093;23;20176;-88
2023/09/15 07:46:33;;;;;;;16.38;13.10;;;17.10;99.90;;;;;;6214616;23;20170;-86
2023/09/15 07:49:00;;;;;;;14.93;12.85;;;17.20;99.90;;;;;;6213681;23;20180;-85
2023/09/15 07:51:27;;;;;;;13.93;12.40;;;17.20;99.90;;;;;;6212128;23;20527;-87
2023/09/15 07:53:54;;;;;;;14.30;12.20;;;17.30;99.90;;;;;;6213810;23;20609;-88
2023/09/15 07:56:22;;;;;;;15.07;12.20;;;17.30;99.90;;;;;;6211582;23;20178;-86
2023/09/15 07:58:49;;;;;;;15.45;12.23;;;17.50;99.90;;;;;;6213766;23;20252;-86
2023/09/15 08:01:16;;;;;;;14.65;12.18;;;17.50;99.90;;;;;;6186249;23;20180;-86
2023/09/15 08:03:44;;;;;;;15.25;12.07;;;17.60;99.90;;;;;;6213697;23;20182;-88
2023/09/15 08:06:12;;;;;;;12.60;11.30;;;17.70;99.90;;;;;;6215033;23;20174;-86
2023/09/15 08:08:38;;;;;;;13.52;12.13;;;17.90;99.90;;;;;;6212942;23;20262;-86
2023/09/15 08:11:05;;;;;;;14.43;11.88;;;18.10;99.00;;;;;;6214484;23;20174;-85
2023/09/15 08:13:32;;;;;;;12.00;10.80;;;18.10;98.40;;;;;;6212958;23;20170;-84
2023/09/15 08:15:59;;;;;;;12.48;11.18;;;18.20;98.30;;;;;;6215770;23;20170;-86
2023/09/15 08:18:26;;;;;;;13.15;11.82;;;18.20;97.70;;;;;;6214546;23;20498;-86
2023/09/15 08:20:55;;;;;;;13.95;10.88;;;18.20;97.70;;;;;;6214325;23;20170;-85
2023/09/15 08:23:22;;;;;;;12.27;10.98;;;18.30;97.70;;;;;;6214252;23;20495;-85
2023/09/15 08:25:50;;;;;;;11.70;10.52;;;18.30;98.20;;;;;;6214412;23;20184;-84
2023/09/15 08:28:17;;;;;;;11.68;10.45;;;18.30;97.70;;;;;;6213928;23;20170;-85
2023/09/15 08:30:46;;;;;;;11.65;10.45;;;18.50;97.70;;;;;;6213572;23;20178;-86
2023/09/15 08:33:13;;;;;;;11.50;10.30;;;18.60;96.40;;;;;;6214118;23;20201;-85
2023/09/15 08:35:40;;;;;;;11.02;9.40;;;18.70;96.20;;;;;;6213486;23;20178;-86
2023/09/15 08:38:09;;;;;;;12.27;10.38;;;19.10;95.30;;;;;;6215011;23;20196;-86
2023/09/15 08:40:43;;;;;;;11.35;10.15;;;19.10;95.10;;;;;;6211419;23;20706;-89
2023/09/15 08:43:10;;;;;;;10.90;9.27;;;19.20;94.90;;;;;;6213597;23;20197;-86
2023/09/15 08:45:38;;;;;;;10.32;9.23;;;19.30;94.70;;;;;;6213612;23;20209;-84
2023/09/15 08:48:06;;;;;;;14.05;9.48;;;19.50;94.10;;;;;;6215105;23;20181;-85
2023/09/15 08:50:35;;;;;;;9.73;8.73;;;20.00;92.60;;;;;;6214565;23;20202;-85
2023/09/15 08:53:02;;;;;;;10.10;8.93;;;20.10;93.20;;;;;;6214677;23;20170;-85
2023/09/15 08:55:30;;;;;;;9.75;8.75;;;20.50;91.10;;;;;;6214020;23;20231;-86
2023/09/15 08:57:58;;;;;;;10.73;9.27;;;20.60;90.70;;;;;;6212987;23;20176;-85
2023/09/15 09:00:25;;;;;;;9.25;8.40;;;20.80;87.90;;;;;;6214115;23;20205;-84
2023/09/15 09:02:53;;;;;;;9.63;8.73;;;20.80;86.70;;;;;;6214422;23;20262;-83
2023/09/15 09:05:22;;;;;;;10.05;9.05;;;20.80;87.90;;;;;;6186813;23;20178;-84
2023/09/15 09:07:51;;;;;;;8.77;7.82;;;21.20;87.60;;;;;;6210653;23;20174;-83
2023/09/15 09:10:19;;;;;;;9.18;8.27;;;21.90;82.20;;;;;;6210706;23;20178;-82
2023/09/15 09:12:47;;;;;;;9.68;7.80;;;22.50;75.40;;;;;;6213666;23;20170;-82
2023/09/15 09:15:17;;;;;;;8.48;7.68;;;22.80;61.60;;;;;;6213917;23;20177;-81
2023/09/15 09:17:43;;;;;;;10.10;7.93;;;23.40;54.20;;;;;;6213389;23;20185;-83
2023/09/15 09:20:24;;;;;;;8.00;7.30;;;23.50;47.30;;;;;;6212672;23;20675;-82
2023/09/15 09:22:52;;;;;;;8.23;7.45;;;23.40;49.60;;;;;;6212616;23;20172;-81
2023/09/15 09:25:27;;;;;;;8.20;7.40;;;23.50;46.10;;;;;;6210676;23;20177;-82
2023/09/15 09:27:55;;;;;;;7.78;7.00;;;23.40;46.10;;;;;;6213963;23;20161;-82
2023/09/15 09:30:25;;;;;;;8.15;7.35;;;23.60;45.20;;;;;;6212171;23;20173;-82
2023/09/15 09:32:51;;;;;;;7.20;6.55;;;23.70;44.00;;;;;;6212504;23;20616;-81
2023/09/15 09:35:18;;;;;;;8.07;7.38;;;23.80;44.60;;;;;;6212892;23;20181;-84
2023/09/15 09:37:45;;;;;;;7.47;6.88;;;24.70;36.00;;;;;;6211962;23;20180;-82
2023/09/15 09:40:12;;;;;;;7.88;7.18;;;24.40;35.80;;;;;;6213535;23;20208;-83
2023/09/15 09:42:39;;;;;;;7.32;6.72;;;23.40;42.10;;;;;;6213293;23;20177;-83
2023/09/15 09:45:08;;;;;;;6.93;6.32;;;24.10;41.30;;;;;;6213921;23;20191;-82
2023/09/15 09:47:35;;;;;;;6.10;5.60;;;25.00;35.50;;;;;;6213568;23;20176;-82
2023/09/15 09:50:05;;;;;;;7.50;6.80;;;26.60;27.90;;;;;;6213994;23;20180;-85
2023/09/15 09:52:32;;;;;;;6.90;6.20;;;27.20;22.20;;;;;;6213313;23;20193;-84
2023/09/15 09:55:03;;;;;;;8.05;7.25;;;26.20;26.00;;;;;;6213998;23;20169;-83
2023/09/15 09:57:30;;;;;;;7.78;7.07;;;26.40;26.70;;;;;;6214337;23;20158;-83
2023/09/15 09:59:57;;;;;;;7.47;6.80;;;27.10;22.30;;;;;;6214487;23;20204;-89
2023/09/15 10:02:27;;;;;;;8.15;7.55;;;27.20;21.90;;;;;;6213364;23;20181;-86
2023/09/15 10:04:54;;;;;;;6.80;6.30;;;27.40;20.20;;;;;;6213155;23;20212;-86
2023/09/15 10:07:21;;;;;;;6.38;5.88;;;27.00;23.70;;;;;;6213297;23;20659;-85
2023/09/15 10:09:48;;;;;;;6.88;6.28;;;27.90;19.20;;;;;;6213117;23;20173;-86
2023/09/15 10:12:16;;;;;;;6.28;5.78;;;27.20;20.10;;;;;;6213449;23;20180;-86
2023/09/15 10:14:43;;;;;;;7.30;6.60;;;26.80;23.40;;;;;;6186693;23;20201;-85
2023/09/15 10:17:10;;;;;;;6.80;6.30;;;26.90;21.80;;;;;;6187705;23;20231;-85
2023/09/15 10:19:39;;;;;;;6.00;5.60;;;27.70;20.90;;;;;;6213133;23;20651;-86
2023/09/15 10:22:07;;;;;;;7.38;6.68;;;27.30;21.10;;;;;;6213319;23;20177;-85
2023/09/15 10:24:34;;;;;;;7.68;6.97;;;26.80;25.60;;;;;;6213209;23;20506;-85
2023/09/15 10:27:01;;;;;;;6.80;6.25;;;26.90;22.60;;;;;;6214271;23;20170;-85
2023/09/15 10:29:31;;;;;;;7.78;7.07;;;27.50;20.70;;;;;;6213546;23;20180;-86
2023/09/15 10:32:03;;;;;;;7.07;5.78;;;26.40;22.00;;;;;;6213994;23;20540;-84
2023/09/15 10:34:30;;;;;;;6.93;6.32;;;26.20;25.10;;;;;;6212752;23;20493;-85
2023/09/15 10:37:02;;;;;;;7.55;6.95;;;25.90;30.00;;;;;;6213149;23;20177;-83
2023/09/15 10:39:36;;;;;;;7.63;7.03;;;25.50;34.20;;;;;;6213891;23;20190;-85
2023/09/15 10:42:07;;;;;;;7.05;6.45;;;25.20;33.20;;;;;;6213433;23;20195;-85
2023/09/15 10:44:34;;;;;;;6.55;6.05;;;25.30;29.50;;;;;;6212951;23;20162;-83
2023/09/15 10:47:02;;;;;;;7.00;6.35;;;26.60;24.10;;;;;;6212811;23;20181;-84
2023/09/15 10:49:29;;;;;;;7.05;6.40;;;27.50;21.10;;;;;;6213313;23;20174;-86
2023/09/15 10:51:57;;;;;;;7.70;7.10;;;26.80;22.40;;;;;;6212737;23;20252;-86
2023/09/15 10:54:30;;;;;;;6.97;6.00;;;26.50;25.40;;;;;;6211505;23;20476;-86
2023/09/15 10:56:57;;;;;;;7.13;6.53;;;26.40;27.80;;;;;;6212036;23;20165;-86
2023/09/15 10:59:26;;;;;;;6.60;6.00;;;26.30;27.20;;;;;;6212092;23;20193;-86
2023/09/15 11:01:53;;;;;;;7.35;6.65;;;26.60;22.60;;;;;;6213421;23;20187;-86
2023/09/15 11:04:21;;;;;;;6.22;5.68;;;26.00;25.10;;;;;;6213382;23;20169;-86
2023/09/15 11:06:50;;;;;;;6.75;6.10;;;25.80;24.90;;;;;;6213642;23;20182;-88
2023/09/15 11:09:17;;;;;;;7.05;6.45;;;25.60;25.60;;;;;;6212820;23;20191;-84
2023/09/15 11:11:50;;;;;;;6.47;5.95;;;25.30;26.80;;;;;;6211240;23;20170;-88
2023/09/15 11:14:18;;;;;;;7.05;6.38;;;24.80;31.60;;;;;;6185469;23;20158;-86
2023/09/15 11:16:48;;;;;;;7.30;6.68;;;24.60;34.30;;;;;;6211600;23;20192;-84
2023/09/15 11:19:17;;;;;;;7.22;6.63;;;24.60;29.50;;;;;;6212585;23;20180;-83
2023/09/15 11:21:45;;;;;;;7.70;6.95;;;24.50;31.90;;;;;;6211112;23;20174;-85
2023/09/15 11:24:12;;;;;;;7.00;6.40;;;24.10;31.70;;;;;;6211550;23;20251;-86
2023/09/15 11:26:45;;;;;;;6.10;5.60;;;24.20;32.50;;;;;;6212950;23;20188;-87
2023/09/15 11:29:14;;;;;;;8.00;6.32;;;24.10;31.60;;;;;;6213102;23;20162;-90
2023/09/15 11:31:41;;;;;;;6.90;6.30;;;24.10;34.10;;;;;;6212859;23;20174;-90
2023/09/15 11:34:10;;;;;;;6.20;5.70;;;24.10;34.20;;;;;;6212919;23;20170;-87
2023/09/15 11:36:38;;;;;;;7.80;6.75;;;24.20;33.90;;;;;;6212014;23;20201;-88
2023/09/15 11:39:10;;;;;;;6.65;6.05;;;24.20;31.00;;;;;;6187423;23;20233;-86
2023/09/15 11:41:38;;;;;;;6.57;5.97;;;24.10;35.50;;;;;;6212085;23;20204;-87
2023/09/15 11:44:08;;;;;;;6.55;5.95;;;24.10;32.00;;;;;;6210850;23;20174;-92
2023/09/15 11:46:38;;;;;;;6.80;6.20;;;24.20;32.80;;;;;;6211654;23;20159;-86
2023/09/15 11:49:05;;;;;;;6.45;5.90;;;23.90;35.30;;;;;;6213361;23;20224;-87
2023/09/15 11:51:33;;;;;;;6.07;5.57;;;23.90;33.60;;;;;;6214679;23;20190;-86
2023/09/15 11:54:03;;;;;;;7.00;6.38;;;24.00;34.70;;;;;;6213824;23;20174;-87
2023/09/15 11:56:31;;;;;;;6.88;6.20;;;23.90;39.20;;;;;;6214672;23;20178;-86
2023/09/15 11:58:58;;;;;;;6.85;6.15;;;23.90;37.30;;;;;;6187658;23;20178;-89
2023/09/15 12:01:26;;;;;;;7.28;5.60;;;24.00;35.40;;;;;;6214709;23;20651;-90
2023/09/15 12:03:55;;;;;;;6.05;5.55;;;23.90;35.30;;;;;;6213881;23;20177;-89
2023/09/15 12:06:22;;;;;;;6.32;5.82;;;23.90;34.50;;;;;;6215184;23;20202;-89
2023/09/15 12:08:51;;;;;;;6.10;5.50;;;23.90;35.40;;;;;;6188408;23;20174;-92
2023/09/15 12:11:19;;;;;;;6.10;5.50;;;23.90;34.30;;;;;;6214895;23;20174;-90
2023/09/15 12:13:51;;;;;;;5.95;5.45;;;23.90;35.40;;;;;;6161871;23;20243;-90
2023/09/15 12:16:19;;;;;;;6.20;5.70;;;23.90;35.30;;;;;;6162809;23;20539;-89
2023/09/15 12:18:47;;;;;;;6.18;5.68;;;24.00;33.50;;;;;;6212919;23;20174;-89
2023/09/15 12:21:16;;;;;;;5.95;5.35;;;23.80;35.30;;;;;;6214241;23;20193;-89
2023/09/15 12:23:51;;;;;;;6.07;5.43;;;23.90;37.30;;;;;;6213764;23;20261;-90
2023/09/15 12:26:18;;;;;;;5.63;5.13;;;23.80;36.30;;;;;;6188119;23;21069;-89
2023/09/15 12:28:47;;;;;;;5.80;5.30;;;23.80;37.60;;;;;;6214155;23;20178;-89
2023/09/15 12:31:17;;;;;;;5.55;5.05;;;23.90;35.30;;;;;;6212924;23;20182;-89
2023/09/15 12:33:45;;;;;;;6.30;5.70;;;23.90;35.30;;;;;;6213627;23;20170;-90
2023/09/15 12:36:13;;;;;;;6.15;5.65;;;23.90;35.30;;;;;;6213904;23;20582;-89
2023/09/15 12:38:42;;;;;;;5.68;5.10;;;24.00;35.40;;;;;;6212744;23;20180;-90
2023/09/15 12:41:09;;;;;;;5.70;5.20;;;23.90;35.30;;;;;;6211890;23;20204;-89
2023/09/15 12:43:36;;;;;;;6.30;5.78;;;24.00;35.40;;;;;;6210419;23;20170;-89